sensor_id;sensor_type;location;lat;lon;timestamp;P1;durP1;ratioP1;P2;durP2;ratioP2
45940;SDS011;31858;46.008;8.978;2022-09-29T00:08:36;3.95;;;3.00;;
45940;SDS011;31858;46.008;8.978;2022-09-29T00:18:37;3.30;;;2.95;;
45940;SDS011;31858;46.008;8.978;2022-09-29T00:28:44;6.68;;;3.40;;
45940;SDS011;31858;46.008;8.978;2022-09-29T00:38:48;4.55;;;3.13;;
45940;SDS011;31858;46.008;8.978;2022-09-29T00:48:53;7.00;;;3.78;;
45940;SDS011;31858;46.008;8.978;2022-09-29T00:58:58;6.35;;;4.18;;
45940;SDS011;31858;46.008;8.978;2022-09-29T01:09:04;7.97;;;3.10;;
45940;SDS011;31858;46.008;8.978;2022-09-29T01:19:10;4.78;;;3.10;;
45940;SDS011;31858;46.008;8.978;2022-09-29T01:29:31;4.97;;;3.80;;
45940;SDS011;31858;46.008;8.978;2022-09-29T01:40:01;5.28;;;3.40;;
45940;SDS011;31858;46.008;8.978;2022-09-29T01:50:10;9.43;;;3.92;;
45940;SDS011;31858;46.008;8.978;2022-09-29T02:00:16;7.05;;;3.60;;
45940;SDS011;31858;46.008;8.978;2022-09-29T02:10:21;8.48;;;4.00;;
45940;SDS011;31858;46.008;8.978;2022-09-29T02:20:28;5.68;;;3.40;;
45940;SDS011;31858;46.008;8.978;2022-09-29T02:30:31;6.28;;;3.50;;
45940;SDS011;31858;46.008;8.978;2022-09-29T02:40:39;6.18;;;3.08;;
45940;SDS011;31858;46.008;8.978;2022-09-29T02:50:55;4.63;;;2.97;;
45940;SDS011;31858;46.008;8.978;2022-09-29T03:01:09;7.07;;;2.83;;
45940;SDS011;31858;46.008;8.978;2022-09-29T03:11:11;3.22;;;2.53;;
45940;SDS011;31858;46.008;8.978;2022-09-29T03:21:14;9.10;;;3.10;;
45940;SDS011;31858;46.008;8.978;2022-09-29T03:31:15;5.15;;;3.10;;
45940;SDS011;31858;46.008;8.978;2022-09-29T03:41:18;8.40;;;2.78;;
45940;SDS011;31858;46.008;8.978;2022-09-29T03:51:20;4.50;;;2.70;;
45940;SDS011;31858;46.008;8.978;2022-09-29T04:01:23;5.95;;;3.03;;
45940;SDS011;31858;46.008;8.978;2022-09-29T04:11:24;5.38;;;2.70;;
45940;SDS011;31858;46.008;8.978;2022-09-29T04:21:27;3.95;;;2.60;;
45940;SDS011;31858;46.008;8.978;2022-09-29T04:31:29;3.30;;;2.80;;
45940;SDS011;31858;46.008;8.978;2022-09-29T04:41:32;6.47;;;4.07;;
45940;SDS011;31858;46.008;8.978;2022-09-29T04:51:35;4.65;;;2.88;;
45940;SDS011;31858;46.008;8.978;2022-09-29T05:01:38;6.32;;;3.17;;
45940;SDS011;31858;46.008;8.978;2022-09-29T05:11:39;3.97;;;2.63;;
45940;SDS011;31858;46.008;8.978;2022-09-29T05:21:42;5.05;;;3.58;;
45940;SDS011;31858;46.008;8.978;2022-09-29T05:31:45;6.85;;;2.97;;
45940;SDS011;31858;46.008;8.978;2022-09-29T05:41:48;5.50;;;3.60;;
45940;SDS011;31858;46.008;8.978;2022-09-29T05:51:49;5.38;;;2.80;;
45940;SDS011;31858;46.008;8.978;2022-09-29T06:01:52;4.57;;;2.97;;
45940;SDS011;31858;46.008;8.978;2022-09-29T06:11:54;2.75;;;2.28;;
45940;SDS011;31858;46.008;8.978;2022-09-29T06:21:57;5.50;;;3.10;;
45940;SDS011;31858;46.008;8.978;2022-09-29T06:31:58;5.32;;;2.67;;
45940;SDS011;31858;46.008;8.978;2022-09-29T06:42:01;5.40;;;2.83;;
45940;SDS011;31858;46.008;8.978;2022-09-29T06:52:03;5.07;;;3.40;;
45940;SDS011;31858;46.008;8.978;2022-09-29T07:02:07;8.27;;;3.45;;
45940;SDS011;31858;46.008;8.978;2022-09-29T07:12:10;7.80;;;3.65;;
45940;SDS011;31858;46.008;8.978;2022-09-29T07:22:13;3.83;;;2.70;;
45940;SDS011;31858;46.008;8.978;2022-09-29T07:32:14;3.80;;;2.67;;
45940;SDS011;31858;46.008;8.978;2022-09-29T07:42:18;3.78;;;2.80;;
45940;SDS011;31858;46.008;8.978;2022-09-29T07:52:20;10.65;;;3.83;;
45940;SDS011;31858;46.008;8.978;2022-09-29T08:02:23;10.73;;;3.63;;
45940;SDS011;31858;46.008;8.978;2022-09-29T08:12:25;7.03;;;3.33;;
45940;SDS011;31858;46.008;8.978;2022-09-29T08:22:28;10.57;;;5.00;;
45940;SDS011;31858;46.008;8.978;2022-09-29T08:32:30;10.43;;;4.38;;
45940;SDS011;31858;46.008;8.978;2022-09-29T08:42:35;5.70;;;3.67;;
45940;SDS011;31858;46.008;8.978;2022-09-29T08:52:43;6.35;;;3.35;;
45940;SDS011;31858;46.008;8.978;2022-09-29T09:13:29;5.75;;;3.88;;
45940;SDS011;31858;46.008;8.978;2022-09-29T09:23:48;6.38;;;4.20;;
45940;SDS011;31858;46.008;8.978;2022-09-29T09:33:55;4.45;;;3.60;;
45940;SDS011;31858;46.008;8.978;2022-09-29T09:44:05;6.10;;;3.08;;
45940;SDS011;31858;46.008;8.978;2022-09-29T09:54:15;7.43;;;3.20;;
45940;SDS011;31858;46.008;8.978;2022-09-29T10:04:26;5.70;;;3.08;;
45940;SDS011;31858;46.008;8.978;2022-09-29T10:14:28;10.45;;;5.90;;
45940;SDS011;31858;46.008;8.978;2022-09-29T10:24:33;13.32;;;10.73;;
45940;SDS011;31858;46.008;8.978;2022-09-29T10:34:34;11.60;;;8.50;;
45940;SDS011;31858;46.008;8.978;2022-09-29T10:44:40;19.17;;;11.48;;
45940;SDS011;31858;46.008;8.978;2022-09-29T10:54:51;14.13;;;10.48;;
45940;SDS011;31858;46.008;8.978;2022-09-29T11:04:56;12.52;;;6.43;;
45940;SDS011;31858;46.008;8.978;2022-09-29T11:15:07;11.10;;;8.77;;
45940;SDS011;31858;46.008;8.978;2022-09-29T11:35:53;9.93;;;8.02;;
45940;SDS011;31858;46.008;8.978;2022-09-29T11:56:14;8.23;;;6.53;;
45940;SDS011;31858;46.008;8.978;2022-09-29T12:06:38;8.82;;;6.75;;
45940;SDS011;31858;46.008;8.978;2022-09-29T12:16:55;12.43;;;7.70;;
45940;SDS011;31858;46.008;8.978;2022-09-29T12:27:02;10.60;;;8.32;;
45940;SDS011;31858;46.008;8.978;2022-09-29T12:37:10;10.80;;;7.78;;
45940;SDS011;31858;46.008;8.978;2022-09-29T12:47:21;8.30;;;7.23;;
45940;SDS011;31858;46.008;8.978;2022-09-29T13:07:41;13.13;;;7.95;;
45940;SDS011;31858;46.008;8.978;2022-09-29T13:17:56;11.80;;;8.00;;
45940;SDS011;31858;46.008;8.978;2022-09-29T13:28:19;13.07;;;8.57;;
45940;SDS011;31858;46.008;8.978;2022-09-29T13:38:26;10.55;;;6.72;;
45940;SDS011;31858;46.008;8.978;2022-09-29T13:48:35;11.52;;;8.10;;
45940;SDS011;31858;46.008;8.978;2022-09-29T13:58:57;9.10;;;5.78;;
45940;SDS011;31858;46.008;8.978;2022-09-29T14:09:04;8.27;;;5.35;;
45940;SDS011;31858;46.008;8.978;2022-09-29T14:19:09;10.43;;;5.10;;
45940;SDS011;31858;46.008;8.978;2022-09-29T14:29:26;8.07;;;4.57;;
45940;SDS011;31858;46.008;8.978;2022-09-29T14:39:30;8.60;;;5.78;;
45940;SDS011;31858;46.008;8.978;2022-09-29T15:00:27;7.38;;;5.60;;
45940;SDS011;31858;46.008;8.978;2022-09-29T15:10:42;8.98;;;5.80;;
45940;SDS011;31858;46.008;8.978;2022-09-29T15:20:50;7.57;;;5.45;;
45940;SDS011;31858;46.008;8.978;2022-09-29T15:31:01;6.13;;;4.63;;
45940;SDS011;31858;46.008;8.978;2022-09-29T15:41:12;6.90;;;3.65;;
45940;SDS011;31858;46.008;8.978;2022-09-29T15:51:18;3.00;;;2.67;;
45940;SDS011;31858;46.008;8.978;2022-09-29T16:01:19;4.80;;;2.97;;
45940;SDS011;31858;46.008;8.978;2022-09-29T16:11:23;3.22;;;2.10;;
45940;SDS011;31858;46.008;8.978;2022-09-29T16:21:31;1.92;;;1.73;;
45940;SDS011;31858;46.008;8.978;2022-09-29T16:31:37;7.00;;;3.10;;
45940;SDS011;31858;46.008;8.978;2022-09-29T16:41:40;3.65;;;2.10;;
45940;SDS011;31858;46.008;8.978;2022-09-29T16:51:43;1.50;;;1.40;;
45940;SDS011;31858;46.008;8.978;2022-09-29T17:01:46;2.75;;;1.42;;
45940;SDS011;31858;46.008;8.978;2022-09-29T17:11:49;3.63;;;2.88;;
45940;SDS011;31858;46.008;8.978;2022-09-29T17:21:51;4.00;;;2.67;;
45940;SDS011;31858;46.008;8.978;2022-09-29T17:31:56;2.10;;;1.90;;
45940;SDS011;31858;46.008;8.978;2022-09-29T17:41:58;2.10;;;1.25;;
45940;SDS011;31858;46.008;8.978;2022-09-29T17:52:01;4.82;;;3.55;;
45940;SDS011;31858;46.008;8.978;2022-09-29T18:02:02;5.68;;;5.15;;
45940;SDS011;31858;46.008;8.978;2022-09-29T18:12:07;6.32;;;4.38;;
45940;SDS011;31858;46.008;8.978;2022-09-29T18:22:09;4.65;;;3.78;;
45940;SDS011;31858;46.008;8.978;2022-09-29T18:32:12;4.63;;;2.42;;
45940;SDS011;31858;46.008;8.978;2022-09-29T18:42:18;3.20;;;2.90;;
45940;SDS011;31858;46.008;8.978;2022-09-29T18:52:21;2.30;;;2.00;;
45940;SDS011;31858;46.008;8.978;2022-09-29T19:02:22;4.25;;;2.45;;
45940;SDS011;31858;46.008;8.978;2022-09-29T19:12:26;1.73;;;1.63;;
45940;SDS011;31858;46.008;8.978;2022-09-29T19:22:28;1.70;;;1.40;;
45940;SDS011;31858;46.008;8.978;2022-09-29T19:32:35;1.80;;;1.50;;
45940;SDS011;31858;46.008;8.978;2022-09-29T19:42:37;2.00;;;1.45;;
45940;SDS011;31858;46.008;8.978;2022-09-29T19:52:40;1.45;;;1.35;;
45940;SDS011;31858;46.008;8.978;2022-09-29T20:02:42;1.60;;;1.50;;
45940;SDS011;31858;46.008;8.978;2022-09-29T20:12:45;1.67;;;1.58;;
45940;SDS011;31858;46.008;8.978;2022-09-29T20:22:47;2.08;;;1.42;;
45940;SDS011;31858;46.008;8.978;2022-09-29T20:32:50;1.30;;;1.20;;
45940;SDS011;31858;46.008;8.978;2022-09-29T20:42:51;1.38;;;1.27;;
45940;SDS011;31858;46.008;8.978;2022-09-29T20:52:54;1.15;;;1.15;;
45940;SDS011;31858;46.008;8.978;2022-09-29T21:02:56;1.40;;;1.30;;
45940;SDS011;31858;46.008;8.978;2022-09-29T21:12:59;1.40;;;1.05;;
45940;SDS011;31858;46.008;8.978;2022-09-29T21:23:02;2.75;;;2.05;;
45940;SDS011;31858;46.008;8.978;2022-09-29T21:33:05;3.50;;;1.20;;
45940;SDS011;31858;46.008;8.978;2022-09-29T21:43:06;2.28;;;1.30;;
45940;SDS011;31858;46.008;8.978;2022-09-29T21:53:09;1.50;;;1.40;;
45940;SDS011;31858;46.008;8.978;2022-09-29T22:03:12;2.05;;;1.55;;
45940;SDS011;31858;46.008;8.978;2022-09-29T22:13:16;1.20;;;1.10;;
45940;SDS011;31858;46.008;8.978;2022-09-29T22:23:18;1.13;;;1.02;;
45940;SDS011;31858;46.008;8.978;2022-09-29T22:33:20;1.20;;;1.10;;
45940;SDS011;31858;46.008;8.978;2022-09-29T22:43:22;1.40;;;1.30;;
45940;SDS011;31858;46.008;8.978;2022-09-29T22:53:25;2.05;;;1.20;;
45940;SDS011;31858;46.008;8.978;2022-09-29T23:03:27;1.95;;;1.20;;
45940;SDS011;31858;46.008;8.978;2022-09-29T23:13:30;1.08;;;1.00;;
45940;SDS011;31858;46.008;8.978;2022-09-29T23:23:33;1.33;;;1.17;;
45940;SDS011;31858;46.008;8.978;2022-09-29T23:33:36;2.55;;;1.38;;
45940;SDS011;31858;46.008;8.978;2022-09-29T23:43:38;1.60;;;1.30;;
45940;SDS011;31858;46.008;8.978;2022-09-29T23:53:42;1.38;;;1.10;;
